Portada
METAR-TAF:

METAR-TAF

Aeroports :

Calcuta, Índia

latitud: 22-39N, longitud: 088-27E, altitud: 4 m

Observació

L'informe es va fer fa 24 minuts, a les 15:00 UTC
Vent calma
Temperatura 28°C
Humitat 62%
Pressió 1010 hPa
Visibilitat: 3200 m
calitja

METAR: VECC 231500Z 00000KT 3200 HZ NSC 28/20 Q1010 NOSIG

Hora: 20:54 (15:24 UTC)

Pronòstic

L'informe es va fer fa 1 hora i 24 minuts, a les 14:00 UTC
Pronòstic vàlid del 23 a les 15 UTC al 23 a les 24 UTC
Vent kt del Nord
Visibilitat: 3200 m
calitja
Evolucionant progressivament
l' 23 a les 22 UTC al 23 a les 24 UTC
Visibilitat: 2000 m
boirina

TAF: VECC 231400Z 2315/2324 00000KT 3200 HZ NSC BECMG 2322/2324 2000 BR

Observacions i pronòstics meteorològics de més de 4000 aeroports (METAR i TAF).

Les estacions disponibles són els punts grocs i vermells al mapa.

Posi el ratolí al punt desitjat per veure el nom de l'estació.

Feu clic per veure les observacions i els pronòstics meteorològics.

Per canviar el mapa: feu clic els botons verds amb una creu de color negre per apropar; al botó verd amb un guió per allunyar la imatge; o en les fletxes verdes per a mapes adjacents.


METAR-TAF: